Time;durP1;ratioP1;P1;durP2;ratioP2;P2;SDS_P1;SDS_P2;PMS_P1;PMS_P2;Temp;Humidity;BMP_temperature;BMP_pressure;BME280_temperature;BME280_humidity;BME280_pressure;Samples;Min_cycle;Max_cycle;Signal;HPM_P1;HPM_P2
2022/06/20 00:01:59;;;;;;;;;;;;;;;;;;5086363;28;19916;-80
2022/06/20 00:04:45;;;;;;;;;;;;;;;;;;5082211;28;19931;-80
2022/06/20 00:07:32;;;;;;;;;;;;;;;;;;5078949;28;19920;-80
2022/06/20 00:10:18;;;;;;;;;;;;;;;;;;5080880;28;20351;-81
2022/06/20 00:13:05;;;;;;;;;;;;;;;;;;5077624;28;19929;-81
2022/06/20 00:15:51;;;;;;;;;;;;;;;;;;5083856;28;19908;-81
2022/06/20 00:18:38;;;;;;;;;;;;;;;;;;5079189;28;20378;-81
2022/06/20 00:21:24;;;;;;;;;;;;;;;;;;5083618;28;19917;-81
2022/06/20 00:24:11;;;;;;;;;;;;;;;;;;5084717;28;19914;-81
2022/06/20 00:26:57;;;;;;;;;;;;;;;;;;5080930;28;19908;-79
2022/06/20 00:29:44;;;;;;;;;;;;;;;;;;5088136;28;20637;-80
2022/06/20 00:32:30;;;;;;;;;;;;;;;;;;5080784;28;19916;-80
2022/06/20 00:35:17;;;;;;;;;;;;;;;;;;5083723;28;20398;-79
2022/06/20 00:38:03;;;;;;;;;;;;;;;;;;5081773;28;20379;-80
2022/06/20 00:40:49;;;;;;;;;;;;;;;;;;5082831;28;19915;-79
2022/06/20 00:43:36;;;;;;;;;;;;;;;;;;5081867;28;19919;-80
2022/06/20 00:46:22;;;;;;;;;;;;;;;;;;5084160;28;20498;-80
2022/06/20 00:49:09;;;;;;;;;;;;;;;;;;5072710;28;19915;-79
2022/06/20 00:51:55;;;;;;;;;;;;;;;;;;5070485;28;19912;-81
2022/06/20 00:54:42;;;;;;;;;;;;;;;;;;5082270;28;20312;-80
2022/06/20 00:57:28;;;;;;;;;;;;;;;;;;5080563;28;19912;-80
2022/06/20 01:00:15;;;;;;;;;;;;;;;;;;5083134;28;19908;-80
2022/06/20 01:03:01;;;;;;;;;;;;;;;;;;5086038;28;19916;-78
2022/06/20 01:05:48;;;;;;;;;;;;;;;;;;5085249;28;20364;-78
2022/06/20 01:08:34;;;;;;;;;;;;;;;;;;5079989;28;20296;-79
2022/06/20 01:11:25;;;;;;;;;;;;;;;;;;5082056;28;19908;-81
2022/06/20 01:14:11;;;;;;;;;;;;;;;;;;5083137;28;19916;-80
2022/06/20 01:16:58;;;;;;;;;;;;;;;;;;5084876;28;20513;-80
2022/06/20 01:19:44;;;;;;;;;;;;;;;;;;5087552;28;19912;-79
2022/06/20 01:22:31;;;;;;;;;;;;;;;;;;5091160;28;19908;-79
2022/06/20 01:25:17;;;;;;;;;;;;;;;;;;5083962;28;19913;-79
2022/06/20 01:28:04;;;;;;;;;;;;;;;;;;5073622;28;19912;-79
2022/06/20 01:30:50;;;;;;;;;;;;;;;;;;5071624;28;19912;-79
2022/06/20 01:33:37;;;;;;;;;;;;;;;;;;5071575;28;19927;-79
2022/06/20 01:39:29;;;;;;;;;;;;;;;;;;5083617;28;19919;-80
2022/06/20 01:42:18;;;;;;;;;;;;;;;;;;5089260;28;19908;-79
2022/06/20 01:45:05;;;;;;;;;;;;;;;;;;5086552;28;19916;-79
2022/06/20 01:47:51;;;;;;;;;;;;;;;;;;5083992;28;19913;-79
2022/06/20 01:50:38;;;;;;;;;;;;;;;;;;5081699;28;19911;-79
2022/06/20 01:53:24;;;;;;;;;;;;;;;;;;5077851;28;20221;-79
2022/06/20 01:56:11;;;;;;;;;;;;;;;;;;5081272;28;19908;-79
2022/06/20 01:58:57;;;;;;;;;;;;;;;;;;5088930;28;19912;-80
2022/06/20 02:01:44;;;;;;;;;;;;;;;;;;5088462;28;19913;-79
2022/06/20 02:04:30;;;;;;;;;;;;;;;;;;5081338;28;20018;-79
2022/06/20 02:07:16;;;;;;;;;;;;;;;;;;5083558;28;19912;-80
2022/06/20 02:10:03;;;;;;;;;;;;;;;;;;5083828;28;19919;-80
2022/06/20 02:12:50;;;;;;;;;;;;;;;;;;5082896;28;19912;-79
2022/06/20 02:15:36;;;;;;;;;;;;;;;;;;5084084;28;19924;-81
2022/06/20 02:18:22;;;;;;;;;;;;;;;;;;5080393;28;20519;-79
2022/06/20 02:21:09;;;;;;;;;;;;;;;;;;5078091;28;19913;-82
2022/06/20 02:23:55;;;;;;;;;;;;;;;;;;5084886;28;20300;-80
2022/06/20 02:26:42;;;;;;;;;;;;;;;;;;5083225;28;19915;-80
2022/06/20 02:29:28;;;;;;;;;;;;;;;;;;5085142;28;20269;-81
2022/06/20 02:32:15;;;;;;;;;;;;;;;;;;5085206;28;19916;-79
2022/06/20 02:35:01;;;;;;;;;;;;;;;;;;5087070;28;19927;-80
2022/06/20 02:37:48;;;;;;;;;;;;;;;;;;5079883;28;20339;-83
2022/06/20 02:40:35;;;;;;;;;;;;;;;;;;5083344;28;19908;-80
2022/06/20 02:43:22;;;;;;;;;;;;;;;;;;5082533;28;19908;-80
2022/06/20 02:46:08;;;;;;;;;;;;;;;;;;5080088;28;19931;-79
2022/06/20 02:48:55;;;;;;;;;;;;;;;;;;5085880;28;20287;-79
2022/06/20 02:51:41;;;;;;;;;;;;;;;;;;5083615;28;19908;-80
2022/06/20 02:54:28;;;;;;;;;;;;;;;;;;5085134;28;19931;-79
2022/06/20 02:57:14;;;;;;;;;;;;;;;;;;5086117;28;19909;-79
2022/06/20 03:00:01;;;;;;;;;;;;;;;;;;5080957;28;19908;-80
2022/06/20 03:02:47;;;;;;;;;;;;;;;;;;5087609;28;19919;-80
2022/06/20 03:05:34;;;;;;;;;;;;;;;;;;5079974;28;19912;-81
2022/06/20 03:08:20;;;;;;;;;;;;;;;;;;5088057;28;19914;-81
2022/06/20 03:11:07;;;;;;;;;;;;;;;;;;5083044;28;19978;-80
2022/06/20 03:13:53;;;;;;;;;;;;;;;;;;5078332;28;19916;-80
2022/06/20 03:16:40;;;;;;;;;;;;;;;;;;5084404;28;19912;-80
2022/06/20 03:19:27;;;;;;;;;;;;;;;;;;5085026;28;20287;-80
2022/06/20 03:22:14;;;;;;;;;;;;;;;;;;5083840;28;19919;-80
2022/06/20 03:25:00;;;;;;;;;;;;;;;;;;5084932;28;20226;-81
2022/06/20 03:27:48;;;;;;;;;;;;;;;;;;5085463;28;20429;-81
2022/06/20 03:30:35;;;;;;;;;;;;;;;;;;5086448;28;20017;-81
2022/06/20 03:33:21;;;;;;;;;;;;;;;;;;5069589;28;19912;-81
2022/06/20 03:36:08;;;;;;;;;;;;;;;;;;5073425;28;19912;-81
2022/06/20 03:38:54;;;;;;;;;;;;;;;;;;5081099;28;19919;-81
2022/06/20 03:41:41;;;;;;;;;;;;;;;;;;5080579;28;20375;-80
2022/06/20 03:44:29;;;;;;;;;;;;;;;;;;5081331;28;19919;-80
2022/06/20 03:47:15;;;;;;;;;;;;;;;;;;5080641;28;19912;-80
2022/06/20 03:50:02;;;;;;;;;;;;;;;;;;5080680;28;20390;-80
2022/06/20 03:52:48;;;;;;;;;;;;;;;;;;5070786;28;19931;-80
2022/06/20 03:55:35;;;;;;;;;;;;;;;;;;5080442;28;19916;-80
2022/06/20 03:58:21;;;;;;;;;;;;;;;;;;5081539;28;19908;-80
2022/06/20 04:01:08;;;;;;;;;;;;;;;;;;5082132;28;20654;-81
2022/06/20 04:03:54;;;;;;;;;;;;;;;;;;5070096;28;19912;-80
2022/06/20 04:06:41;;;;;;;;;;;;;;;;;;5066878;28;20360;-80
2022/06/20 04:12:32;;;;;;;;;;;;;;;;;;5085870;28;19909;-81
2022/06/20 04:15:19;;;;;;;;;;;;;;;;;;5098457;28;19924;-81
2022/06/20 04:21:10;;;;;;;;;;;;;;;;;;5086819;28;19912;-81
2022/06/20 04:23:57;;;;;;;;;;;;;;;;;;5082904;28;19908;-81
2022/06/20 04:26:43;;;;;;;;;;;;;;;;;;5083796;28;19916;-81
2022/06/20 04:29:30;;;;;;;;;;;;;;;;;;5085583;28;19928;-80
2022/06/20 04:32:16;;;;;;;;;;;;;;;;;;5083114;28;19917;-80
2022/06/20 04:35:03;;;;;;;;;;;;;;;;;;5082538;28;19924;-80
2022/06/20 04:37:49;;;;;;;;;;;;;;;;;;5079770;28;20009;-81
2022/06/20 04:40:36;;;;;;;;;;;;;;;;;;5084650;28;19912;-80
2022/06/20 04:43:22;;;;;;;;;;;;;;;;;;5073722;28;20300;-80
2022/06/20 04:46:08;;;;;;;;;;;;;;;;;;5077875;28;19917;-80
2022/06/20 04:48:56;;;;;;;;;;;;;;;;;;5076398;28;20459;-80
2022/06/20 04:51:45;;;;;;;;;;;;;;;;;;5089165;28;20406;-80
2022/06/20 04:54:32;;;;;;;;;;;;;;;;;;5085009;28;19924;-80
2022/06/20 04:57:18;;;;;;;;;;;;;;;;;;5088013;28;19919;-81
2022/06/20 05:00:05;;;;;;;;;;;;;;;;;;5087523;28;19916;-81
2022/06/20 05:02:51;;;;;;;;;;;;;;;;;;5087387;28;19931;-81
2022/06/20 05:05:38;;;;;;;;;;;;;;;;;;5085115;28;19938;-80
2022/06/20 05:08:24;;;;;;;;;;;;;;;;;;5073102;28;19912;-79
2022/06/20 05:11:11;;;;;;;;;;;;;;;;;;5085385;28;19908;-86
2022/06/20 05:13:57;;;;;;;;;;;;;;;;;;5078643;28;19970;-84
2022/06/20 05:16:44;;;;;;;;;;;;;;;;;;5080919;28;19923;-84
2022/06/20 05:19:31;;;;;;;;;;;;;;;;;;5082542;28;19920;-88
2022/06/20 05:22:19;;;;;;;;;;;;;;;;;;5079981;28;19916;-81
2022/06/20 05:25:05;;;;;;;;;;;;;;;;;;5077125;28;19909;-87
2022/06/20 05:27:51;;;;;;;;;;;;;;;;;;5077520;28;20387;-85
2022/06/20 05:30:38;;;;;;;;;;;;;;;;;;5080948;28;19923;-83
2022/06/20 05:33:24;;;;;;;;;;;;;;;;;;5088730;28;19908;-82
2022/06/20 05:36:11;;;;;;;;;;;;;;;;;;5085060;28;19908;-83
2022/06/20 05:38:57;;;;;;;;;;;;;;;;;;5078336;28;19954;-83
2022/06/20 05:41:44;;;;;;;;;;;;;;;;;;5076227;28;19913;-87
2022/06/20 05:44:30;;;;;;;;;;;;;;;;;;5076670;28;19912;-88
2022/06/20 05:47:17;;;;;;;;;;;;;;;;;;5083323;28;19947;-86
2022/06/20 05:50:04;;;;;;;;;;;;;;;;;;5082691;28;19922;-86
2022/06/20 05:52:50;;;;;;;;;;;;;;;;;;5075807;28;19932;-87
2022/06/20 05:55:36;;;;;;;;;;;;;;;;;;5078986;28;19917;-88
2022/06/20 05:58:23;;;;;;;;;;;;;;;;;;5077495;28;19916;-87
2022/06/20 06:01:09;;;;;;;;;;;;;;;;;;5078449;28;20021;-86
2022/06/20 06:03:56;;;;;;;;;;;;;;;;;;5077102;28;19915;-88
2022/06/20 06:06:42;;;;;;;;;;;;;;;;;;5075294;28;19919;-86
2022/06/20 06:09:29;;;;;;;;;;;;;;;;;;5078002;28;19909;-89
2022/06/20 06:12:15;;;;;;;;;;;;;;;;;;5075230;28;19923;-87
2022/06/20 06:15:02;;;;;;;;;;;;;;;;;;5078141;28;20434;-88
2022/06/20 06:17:49;;;;;;;;;;;;;;;;;;5075333;28;19920;-88
2022/06/20 06:20:35;;;;;;;;;;;;;;;;;;5077462;28;19927;-88
2022/06/20 06:23:21;;;;;;;;;;;;;;;;;;5076740;28;19914;-87
2022/06/20 06:26:08;;;;;;;;;;;;;;;;;;5085592;28;19919;-89
2022/06/20 06:28:54;;;;;;;;;;;;;;;;;;5063628;28;19912;-87
2022/06/20 06:31:41;;;;;;;;;;;;;;;;;;5079784;28;19930;-88
2022/06/20 06:34:27;;;;;;;;;;;;;;;;;;5076989;28;19916;-87
2022/06/20 06:37:14;;;;;;;;;;;;;;;;;;5082533;28;19912;-88
2022/06/20 06:40:00;;;;;;;;;;;;;;;;;;5077793;28;20578;-85
2022/06/20 06:42:47;;;;;;;;;;;;;;;;;;5075460;28;19920;-85
2022/06/20 06:45:35;;;;;;;;;;;;;;;;;;5060296;28;19916;-85
2022/06/20 06:48:22;;;;;;;;;;;;;;;;;;5076709;28;20379;-87
2022/06/20 06:51:08;;;;;;;;;;;;;;;;;;5080102;28;19936;-87
2022/06/20 06:53:55;;;;;;;;;;;;;;;;;;5076113;28;19927;-88
2022/06/20 06:56:41;;;;;;;;;;;;;;;;;;5069372;28;19923;-87
2022/06/20 06:59:28;;;;;;;;;;;;;;;;;;5083928;28;20478;-88
2022/06/20 07:02:14;;;;;;;;;;;;;;;;;;5080222;28;19908;-89
2022/06/20 07:05:01;;;;;;;;;;;;;;;;;;5080924;28;19922;-87
2022/06/20 07:07:47;;;;;;;;;;;;;;;;;;5070645;28;20296;-87
2022/06/20 07:10:34;;;;;;;;;;;;;;;;;;5080772;28;19912;-89
2022/06/20 07:13:20;;;;;;;;;;;;;;;;;;5085658;28;19919;-88
2022/06/20 07:16:06;;;;;;;;;;;;;;;;;;5076569;28;19921;-89
2022/06/20 07:18:53;;;;;;;;;;;;;;;;;;5071578;28;19935;-87
2022/06/20 07:21:39;;;;;;;;;;;;;;;;;;5073947;28;20435;-87
2022/06/20 07:24:26;;;;;;;;;;;;;;;;;;5072703;28;19918;-89
2022/06/20 07:27:13;;;;;;;;;;;;;;;;;;5075206;28;20346;-87
2022/06/20 07:29:59;;;;;;;;;;;;;;;;;;5081717;28;19908;-87
2022/06/20 07:32:45;;;;;;;;;;;;;;;;;;5078867;28;19948;-87
2022/06/20 07:35:32;;;;;;;;;;;;;;;;;;5077759;28;19931;-87
2022/06/20 07:38:18;;;;;;;;;;;;;;;;;;5081008;28;19916;-88
2022/06/20 07:41:05;;;;;;;;;;;;;;;;;;5085869;28;19919;-86
2022/06/20 07:43:51;;;;;;;;;;;;;;;;;;5068693;28;19918;-86
2022/06/20 07:46:38;;;;;;;;;;;;;;;;;;5070475;28;19912;-86
2022/06/20 07:49:25;;;;;;;;;;;;;;;;;;5072382;28;19914;-87
2022/06/20 07:52:11;;;;;;;;;;;;;;;;;;5072474;28;19912;-89
2022/06/20 07:54:59;;;;;;;;;;;;;;;;;;5074040;28;20093;-85
2022/06/20 07:57:45;;;;;;;;;;;;;;;;;;5065161;28;20279;-86
2022/06/20 08:00:32;;;;;;;;;;;;;;;;;;5074392;28;19908;-86
2022/06/20 08:03:18;;;;;;;;;;;;;;;;;;5074233;28;19912;-87
2022/06/20 08:06:05;;;;;;;;;;;;;;;;;;5081506;28;19912;-89
2022/06/20 08:08:51;;;;;;;;;;;;;;;;;;5070106;28;19920;-87
2022/06/20 08:11:41;;;;;;;;;;;;;;;;;;5081912;28;19919;-83
2022/06/20 08:14:27;;;;;;;;;;;;;;;;;;5075808;28;19916;-82
2022/06/20 08:17:14;;;;;;;;;;;;;;;;;;5075521;28;19935;-79
2022/06/20 08:20:00;;;;;;;;;;;;;;;;;;5075720;28;20486;-79
2022/06/20 08:22:47;;;;;;;;;;;;;;;;;;5072766;28;19916;-78
2022/06/20 08:25:34;;;;;;;;;;;;;;;;;;5074213;28;19908;-79
2022/06/20 08:28:21;;;;;;;;;;;;;;;;;;5069836;28;19908;-78
2022/06/20 08:31:08;;;;;;;;;;;;;;;;;;5073879;28;19919;-79
2022/06/20 08:33:55;;;;;;;;;;;;;;;;;;5076001;28;19915;-80
2022/06/20 08:36:41;;;;;;;;;;;;;;;;;;5058268;28;19916;-79
2022/06/20 08:39:28;;;;;;;;;;;;;;;;;;5066714;28;19916;-81
2022/06/20 08:42:14;;;;;;;;;;;;;;;;;;5079136;28;20285;-78
2022/06/20 08:45:01;;;;;;;;;;;;;;;;;;5071709;28;19912;-79
2022/06/20 08:47:47;;;;;;;;;;;;;;;;;;5071801;28;19990;-79
2022/06/20 08:50:34;;;;;;;;;;;;;;;;;;5076933;28;19912;-78
2022/06/20 08:53:20;;;;;;;;;;;;;;;;;;5073771;28;20355;-78
2022/06/20 08:56:07;;;;;;;;;;;;;;;;;;5071547;28;19923;-79
2022/06/20 08:58:53;;;;;;;;;;;;;;;;;;5078186;28;19919;-78
2022/06/20 09:01:40;;;;;;;;;;;;;;;;;;5078470;28;19915;-79
2022/06/20 09:04:27;;;;;;;;;;;;;;;;;;5081843;28;19913;-78
2022/06/20 09:07:13;;;;;;;;;;;;;;;;;;5079719;28;20269;-78
2022/06/20 09:10:00;;;;;;;;;;;;;;;;;;5079609;28;19920;-77
2022/06/20 09:12:46;;;;;;;;;;;;;;;;;;5081514;28;19931;-79
2022/06/20 09:15:33;;;;;;;;;;;;;;;;;;5076941;28;19934;-80
2022/06/20 09:18:19;;;;;;;;;;;;;;;;;;5085195;28;19916;-81
2022/06/20 09:21:06;;;;;;;;;;;;;;;;;;5064547;28;20363;-81
2022/06/20 09:23:52;;;;;;;;;;;;;;;;;;5073815;28;19915;-80
2022/06/20 09:26:39;;;;;;;;;;;;;;;;;;5072608;28;19919;-81
2022/06/20 09:29:27;;;;;;;;;;;;;;;;;;5072181;28;19944;-84
2022/06/20 09:32:13;;;;;;;;;;;;;;;;;;5070462;28;19917;-82
2022/06/20 09:35:00;;;;;;;;;;;;;;;;;;5076919;28;20463;-81
2022/06/20 09:37:46;;;;;;;;;;;;;;;;;;5077843;28;19917;-84
2022/06/20 09:40:33;;;;;;;;;;;;;;;;;;5081085;28;19951;-83
2022/06/20 09:43:19;;;;;;;;;;;;;;;;;;5077014;28;19912;-85
2022/06/20 09:46:06;;;;;;;;;;;;;;;;;;5075869;28;19908;-82
2022/06/20 09:48:52;;;;;;;;;;;;;;;;;;5080485;28;19916;-79
2022/06/20 09:51:39;;;;;;;;;;;;;;;;;;5076546;28;20398;-80
2022/06/20 09:54:25;;;;;;;;;;;;;;;;;;5078037;28;19925;-80
2022/06/20 09:57:12;;;;;;;;;;;;;;;;;;5078217;28;19936;-80
2022/06/20 09:59:58;;;;;;;;;;;;;;;;;;5085348;28;19918;-80
2022/06/20 10:02:45;;;;;;;;;;;;;;;;;;5088520;28;19923;-81
2022/06/20 10:05:31;;;;;;;;;;;;;;;;;;5082279;28;19908;-80
2022/06/20 10:08:17;;;;;;;;;;;;;;;;;;5084622;28;19913;-81
2022/06/20 10:11:04;;;;;;;;;;;;;;;;;;5074023;28;19913;-80
2022/06/20 10:13:50;;;;;;;;;;;;;;;;;;5083308;28;19912;-80
2022/06/20 10:16:37;;;;;;;;;;;;;;;;;;5081632;28;19924;-81
2022/06/20 10:19:24;;;;;;;;;;;;;;;;;;5074775;28;20289;-82
2022/06/20 10:22:11;;;;;;;;;;;;;;;;;;5083016;28;19917;-81
2022/06/20 10:24:57;;;;;;;;;;;;;;;;;;5087451;28;19908;-79
2022/06/20 10:27:44;;;;;;;;;;;;;;;;;;5067513;28;19912;-79
2022/06/20 10:30:30;;;;;;;;;;;;;;;;;;5076366;28;19916;-81
2022/06/20 10:33:17;;;;;;;;;;;;;;;;;;5082047;28;19920;-75
2022/06/20 10:36:03;;;;;;;;;;;;;;;;;;5071527;28;19944;-81
2022/06/20 10:38:49;;;;;;;;;;;;;;;;;;5081880;28;19930;-81
2022/06/20 10:41:36;;;;;;;;;;;;;;;;;;5068716;28;19920;-82
2022/06/20 10:44:23;;;;;;;;;;;;;;;;;;5077914;28;19908;-81
2022/06/20 10:47:10;;;;;;;;;;;;;;;;;;5081424;28;19927;-82
2022/06/20 10:49:56;;;;;;;;;;;;;;;;;;5072305;28;19920;-80
2022/06/20 10:52:43;;;;;;;;;;;;;;;;;;5073674;28;19918;-81
2022/06/20 10:55:29;;;;;;;;;;;;;;;;;;5086130;28;19924;-80
2022/06/20 10:58:16;;;;;;;;;;;;;;;;;;5086253;28;19912;-81
2022/06/20 11:01:02;;;;;;;;;;;;;;;;;;5067960;28;19912;-80
2022/06/20 11:03:48;;;;;;;;;;;;;;;;;;5086212;28;20322;-79
2022/06/20 11:06:35;;;;;;;;;;;;;;;;;;5076933;28;19908;-80
2022/06/20 11:09:21;;;;;;;;;;;;;;;;;;5083194;28;19915;-81
2022/06/20 11:12:08;;;;;;;;;;;;;;;;;;5083281;28;19912;-80
2022/06/20 11:14:54;;;;;;;;;;;;;;;;;;5086838;28;19935;-81
2022/06/20 11:17:41;;;;;;;;;;;;;;;;;;5087623;28;19913;-81
2022/06/20 11:20:27;;;;;;;;;;;;;;;;;;5077409;28;19913;-81
2022/06/20 11:23:14;;;;;;;;;;;;;;;;;;5075178;28;20713;-81
2022/06/20 11:26:00;;;;;;;;;;;;;;;;;;5086013;28;19912;-80
2022/06/20 11:28:47;;;;;;;;;;;;;;;;;;5088830;28;19918;-79
2022/06/20 11:31:33;;;;;;;;;;;;;;;;;;5067735;28;20632;-80
2022/06/20 11:34:22;;;;;;;;;;;;;;;;;;5079975;28;19916;-79
2022/06/20 11:37:08;;;;;;;;;;;;;;;;;;5077380;28;20218;-81
2022/06/20 11:39:55;;;;;;;;;;;;;;;;;;5087375;28;19912;-80
2022/06/20 11:42:41;;;;;;;;;;;;;;;;;;5080498;28;19912;-80
2022/06/20 11:45:28;;;;;;;;;;;;;;;;;;5082389;28;19954;-80
2022/06/20 11:48:15;;;;;;;;;;;;;;;;;;5086157;28;20280;-80
2022/06/20 11:51:01;;;;;;;;;;;;;;;;;;5071611;28;19916;-79
2022/06/20 11:53:48;;;;;;;;;;;;;;;;;;5074862;28;19931;-80
2022/06/20 11:56:34;;;;;;;;;;;;;;;;;;5087467;28;19919;-80
2022/06/20 11:59:22;;;;;;;;;;;;;;;;;;5083542;28;20275;-80
2022/06/20 12:02:08;;;;;;;;;;;;;;;;;;5086786;28;19916;-81
2022/06/20 12:04:55;;;;;;;;;;;;;;;;;;5088122;28;19908;-80
2022/06/20 12:07:41;;;;;;;;;;;;;;;;;;5078769;28;19915;-81
2022/06/20 12:10:28;;;;;;;;;;;;;;;;;;5072136;28;20280;-80
2022/06/20 12:13:14;;;;;;;;;;;;;;;;;;5087766;28;19941;-80
2022/06/20 12:16:00;;;;;;;;;;;;;;;;;;5074935;28;20403;-79
2022/06/20 12:23:18;;;;;;;;;;;;;;;;;;5083411;28;19919;-81
2022/06/20 12:24:58;;;;;;;;;;;;;;;;;;5074668;28;19912;-84
2022/06/20 12:27:46;;;;;;;;;;;;;;;;;;5082364;28;19908;-83
2022/06/20 12:30:33;;;;;;;;;;;;;;;;;;5071338;28;19912;-84
2022/06/20 12:33:19;;;;;;;;;;;;;;;;;;5083818;28;19916;-83
2022/06/20 12:36:06;;;;;;;;;;;;;;;;;;5076837;28;19927;-84
2022/06/20 12:38:52;;;;;;;;;;;;;;;;;;5071854;28;19920;-82
2022/06/20 12:41:39;;;;;;;;;;;;;;;;;;5080884;28;20570;-83
2022/06/20 12:44:25;;;;;;;;;;;;;;;;;;5078317;28;19916;-83
2022/06/20 12:47:12;;;;;;;;;;;;;;;;;;5073475;28;20398;-83
2022/06/20 12:49:58;;;;;;;;;;;;;;;;;;5072216;28;19919;-82
2022/06/20 12:52:44;;;;;;;;;;;;;;;;;;5085306;28;19919;-82
2022/06/20 12:55:31;;;;;;;;;;;;;;;;;;5077599;28;19924;-82
2022/06/20 12:58:17;;;;;;;;;;;;;;;;;;5072603;28;19919;-82
2022/06/20 13:01:04;;;;;;;;;;;;;;;;;;5077544;28;19912;-82
2022/06/20 13:03:52;;;;;;;;;;;;;;;;;;5074876;28;20363;-83
2022/06/20 13:06:38;;;;;;;;;;;;;;;;;;5069912;28;20380;-82
2022/06/20 13:09:25;;;;;;;;;;;;;;;;;;5079763;28;19908;-82
2022/06/20 13:12:11;;;;;;;;;;;;;;;;;;5075407;28;19927;-83
2022/06/20 13:14:58;;;;;;;;;;;;;;;;;;5066023;28;20406;-83
2022/06/20 13:17:44;;;;;;;;;;;;;;;;;;5090702;28;19911;-82
2022/06/20 13:20:31;;;;;;;;;;;;;;;;;;5064598;28;19920;-82
2022/06/20 13:23:17;;;;;;;;;;;;;;;;;;5084742;28;19927;-84
2022/06/20 13:26:04;;;;;;;;;;;;;;;;;;5079607;28;19916;-83
2022/06/20 13:28:50;;;;;;;;;;;;;;;;;;5081344;28;20399;-83
2022/06/20 13:31:37;;;;;;;;;;;;;;;;;;5075823;28;20302;-84
2022/06/20 13:34:23;;;;;;;;;;;;;;;;;;5086950;28;19920;-80
2022/06/20 13:37:09;;;;;;;;;;;;;;;;;;5080529;28;20353;-81
2022/06/20 13:39:57;;;;;;;;;;;;;;;;;;5091180;28;19922;-82
2022/06/20 13:42:43;;;;;;;;;;;;;;;;;;5068720;28;19959;-82
2022/06/20 13:45:30;;;;;;;;;;;;;;;;;;5081113;28;19908;-82
2022/06/20 13:48:16;;;;;;;;;;;;;;;;;;5070010;28;19935;-83
2022/06/20 13:51:03;;;;;;;;;;;;;;;;;;5072060;28;19908;-84
2022/06/20 13:53:49;;;;;;;;;;;;;;;;;;5095002;28;19927;-83
2022/06/20 13:56:36;;;;;;;;;;;;;;;;;;5089423;28;19927;-82
2022/06/20 13:59:22;;;;;;;;;;;;;;;;;;5086342;28;19916;-83
2022/06/20 14:02:10;;;;;;;;;;;;;;;;;;5088263;28;20405;-83
2022/06/20 14:04:57;;;;;;;;;;;;;;;;;;5086480;28;19908;-82
2022/06/20 14:07:43;;;;;;;;;;;;;;;;;;5077919;28;19912;-83
2022/06/20 14:10:30;;;;;;;;;;;;;;;;;;5088920;28;19908;-82
2022/06/20 14:13:16;;;;;;;;;;;;;;;;;;5080489;28;19913;-82
2022/06/20 14:16:03;;;;;;;;;;;;;;;;;;5084365;28;20277;-82
2022/06/20 14:18:49;;;;;;;;;;;;;;;;;;5064711;28;19919;-83
2022/06/20 14:21:36;;;;;;;;;;;;;;;;;;5073326;28;20513;-83
2022/06/20 14:24:23;;;;;;;;;;;;;;;;;;5075734;28;19913;-83
2022/06/20 14:27:09;;;;;;;;;;;;;;;;;;5067366;28;19916;-83
2022/06/20 14:29:56;;;;;;;;;;;;;;;;;;5081037;28;20335;-82
2022/06/20 14:32:44;;;;;;;;;;;;;;;;;;5077543;28;19927;-83
2022/06/20 14:35:30;;;;;;;;;;;;;;;;;;5079893;28;19920;-82
2022/06/20 14:38:16;;;;;;;;;;;;;;;;;;5088785;28;19942;-83
2022/06/20 14:41:03;;;;;;;;;;;;;;;;;;5080324;28;19920;-82
2022/06/20 14:43:49;;;;;;;;;;;;;;;;;;5078289;28;19923;-82
2022/06/20 14:46:36;;;;;;;;;;;;;;;;;;5076962;28;20372;-82
2022/06/20 14:49:22;;;;;;;;;;;;;;;;;;5074753;28;19909;-83
2022/06/20 14:52:09;;;;;;;;;;;;;;;;;;5080235;28;19912;-82
2022/06/20 14:54:55;;;;;;;;;;;;;;;;;;5087745;28;19931;-83
2022/06/20 14:57:42;;;;;;;;;;;;;;;;;;5076516;28;19912;-83
2022/06/20 15:00:28;;;;;;;;;;;;;;;;;;5079338;28;20295;-82
2022/06/20 15:03:15;;;;;;;;;;;;;;;;;;5075651;28;20261;-82
2022/06/20 15:06:01;;;;;;;;;;;;;;;;;;5078786;28;19927;-82
2022/06/20 15:08:48;;;;;;;;;;;;;;;;;;5078486;28;19916;-82
2022/06/20 15:11:34;;;;;;;;;;;;;;;;;;5068518;28;19916;-82
2022/06/20 15:14:21;;;;;;;;;;;;;;;;;;5072643;28;19943;-83
2022/06/20 15:17:08;;;;;;;;;;;;;;;;;;5076065;28;19925;-84
2022/06/20 15:19:54;;;;;;;;;;;;;;;;;;5077164;28;20209;-82
2022/06/20 15:22:41;;;;;;;;;;;;;;;;;;5071435;28;19920;-83
2022/06/20 15:25:27;;;;;;;;;;;;;;;;;;5081864;28;20304;-90
2022/06/20 15:28:14;;;;;;;;;;;;;;;;;;5080213;28;19923;-90
2022/06/20 15:31:01;;;;;;;;;;;;;;;;;;5075761;28;19912;-89
2022/06/20 15:33:49;;;;;;;;;;;;;;;;;;5081116;28;19912;-89
2022/06/20 15:36:36;;;;;;;;;;;;;;;;;;5075146;28;19991;-88
2022/06/20 15:39:22;;;;;;;;;;;;;;;;;;5064672;28;19908;-89
2022/06/20 15:42:16;;;;;;;;;;;;;;;;;;5078831;28;19912;-87
2022/06/20 15:45:02;;;;;;;;;;;;;;;;;;5079990;28;19927;-88
2022/06/20 15:47:49;;;;;;;;;;;;;;;;;;5082035;28;19916;-89
2022/06/20 15:50:35;;;;;;;;;;;;;;;;;;5080963;28;19912;-88
2022/06/20 15:53:21;;;;;;;;;;;;;;;;;;5081891;28;20296;-88
2022/06/20 15:56:11;;;;;;;;;;;;;;;;;;5075992;28;19916;-88
2022/06/20 15:59:04;;;;;;;;;;;;;;;;;;5088369;28;19915;-88
2022/06/20 16:01:51;;;;;;;;;;;;;;;;;;5074000;28;19919;-86
2022/06/20 16:04:37;;;;;;;;;;;;;;;;;;5087174;28;19908;-86
2022/06/20 16:07:24;;;;;;;;;;;;;;;;;;5075398;28;19912;-86
2022/06/20 16:10:12;;;;;;;;;;;;;;;;;;5068168;28;20485;-85
2022/06/20 16:12:58;;;;;;;;;;;;;;;;;;5077586;28;19909;-85
2022/06/20 16:15:46;;;;;;;;;;;;;;;;;;5079532;28;19927;-85
2022/06/20 16:18:33;;;;;;;;;;;;;;;;;;5072704;28;20312;-87
2022/06/20 16:21:19;;;;;;;;;;;;;;;;;;5080581;28;19927;-87
2022/06/20 16:24:06;;;;;;;;;;;;;;;;;;5073839;28;20271;-88
2022/06/20 16:26:52;;;;;;;;;;;;;;;;;;5082080;28;20379;-86
2022/06/20 16:29:39;;;;;;;;;;;;;;;;;;5078223;28;19912;-86
2022/06/20 16:32:25;;;;;;;;;;;;;;;;;;5081945;28;19920;-86
2022/06/20 16:35:12;;;;;;;;;;;;;;;;;;5072616;28;19927;-87
2022/06/20 16:37:58;;;;;;;;;;;;;;;;;;5071033;28;19916;-87
2022/06/20 16:40:45;;;;;;;;;;;;;;;;;;5071539;28;19912;-86
2022/06/20 16:43:34;;;;;;;;;;;;;;;;;;5074403;28;19920;-89
2022/06/20 16:46:20;;;;;;;;;;;;;;;;;;5079134;28;19919;-84
2022/06/20 16:49:07;;;;;;;;;;;;;;;;;;5068850;28;19928;-86
2022/06/20 16:51:53;;;;;;;;;;;;;;;;;;5066322;28;19915;-87
2022/06/20 16:54:40;;;;;;;;;;;;;;;;;;5077956;28;20596;-82
2022/06/20 16:57:27;;;;;;;;;;;;;;;;;;5081032;28;19916;-81
2022/06/20 17:00:13;;;;;;;;;;;;;;;;;;5082595;28;19922;-87
2022/06/20 17:02:59;;;;;;;;;;;;;;;;;;5076797;28;19918;-85
2022/06/20 17:05:46;;;;;;;;;;;;;;;;;;5077351;28;19967;-88
2022/06/20 17:08:32;;;;;;;;;;;;;;;;;;5080518;28;19912;-86
2022/06/20 17:11:19;;;;;;;;;;;;;;;;;;5064709;28;19992;-83
2022/06/20 17:14:06;;;;;;;;;;;;;;;;;;5076317;28;19935;-85
2022/06/20 17:16:52;;;;;;;;;;;;;;;;;;5079604;28;19924;-87
2022/06/20 17:19:39;;;;;;;;;;;;;;;;;;5071608;28;19919;-85
2022/06/20 17:22:25;;;;;;;;;;;;;;;;;;5077924;28;19908;-86
2022/06/20 17:25:11;;;;;;;;;;;;;;;;;;5080022;28;19916;-86
2022/06/20 17:27:58;;;;;;;;;;;;;;;;;;5069098;28;19939;-87
2022/06/20 17:30:25;;;;;;;;;;;;;;;;;;5068802;28;19916;-84
2022/06/20 17:32:51;;;;;;;;;;;;;;;;;;5079460;28;19920;-82
2022/06/20 17:35:17;;;;;;;;;;;;;;;;;;5083198;28;19920;-85
2022/06/20 17:37:46;;;;;;;;;;;;;;;;;;5078596;28;20301;-82
2022/06/20 17:40:15;;;;;;;;;;;;;;;;;;5086812;28;20593;-85
2022/06/20 17:42:59;;;;;;;;;;;;;;;;;;5065488;28;19919;-83
2022/06/20 17:45:26;;;;;;;;;;;;;;;;;;5076829;28;19973;-86
2022/06/20 17:47:55;;;;;;;;;;;;;;;;;;5019733;28;19984;-84
2022/06/20 17:50:21;;;;;;;;;;;;;;;;;;5020034;28;20070;-84
2022/06/20 17:52:47;;;;;;;;;;;;;;;;;;5016660;28;19952;-84
2022/06/20 17:55:14;;;;;;;;;;;;;;;;;;5024328;28;19933;-85
2022/06/20 17:57:40;;;;;;;;;;;;;;;;;;5026229;28;20454;-78
2022/06/20 18:00:09;;;;;;;;;;;;;;;;;;5036570;28;20039;-87
2022/06/20 18:02:35;;;;;;;;;;;;;;;;;;5029110;28;19944;-86
2022/06/20 18:05:21;;;;;;;;;;;;;;;;;;5050423;28;19917;-90
2022/06/20 18:08:08;;;;;;;;;;;;;;;;;;5042067;28;19913;-86
2022/06/20 18:10:34;;;;;;;;;;;;;;;;;;5018490;28;19973;-86
2022/06/20 18:13:00;;;;;;;;;;;;;;;;;;4982132;28;19913;-90
2022/06/20 18:15:26;;;;;;;;;;;;;;;;;;5051328;28;20365;-89
2022/06/20 18:17:52;;;;;;;;;;;;;;;;;;5051684;28;20414;-87
2022/06/20 18:20:19;;;;;;;;;;;;;;;;;;5044625;28;19917;-86
2022/06/20 18:22:45;;;;;;;;;;;;;;;;;;5046286;28;19935;-80
2022/06/20 18:25:11;;;;;;;;;;;;;;;;;;5043937;28;19917;-82
2022/06/20 18:27:56;;;;;;;;;;;;;;;;;;5038689;28;20006;-79
2022/06/20 18:30:43;;;;;;;;;;;;;;;;;;5045075;28;19919;-80
2022/06/20 18:33:29;;;;;;;;;;;;;;;;;;5046453;28;19913;-78
2022/06/20 18:36:15;;;;;;;;;;;;;;;;;;5043036;28;20300;-78
2022/06/20 18:39:02;;;;;;;;;;;;;;;;;;5048987;28;19923;-79
2022/06/20 18:41:48;;;;;;;;;;;;;;;;;;5060606;28;19913;-82
2022/06/20 18:44:35;;;;;;;;;;;;;;;;;;5056611;28;19916;-79
2022/06/20 18:47:21;;;;;;;;;;;;;;;;;;5044591;28;19924;-79
2022/06/20 18:50:08;;;;;;;;;;;;;;;;;;5040347;28;19931;-80
2022/06/20 18:52:54;;;;;;;;;;;;;;;;;;5043987;28;19919;-81
2022/06/20 18:55:41;;;;;;;;;;;;;;;;;;5040409;28;19925;-83
2022/06/20 18:58:27;;;;;;;;;;;;;;;;;;5041791;28;20285;-81
2022/06/20 19:01:14;;;;;;;;;;;;;;;;;;5044806;28;19917;-78
2022/06/20 19:04:00;;;;;;;;;;;;;;;;;;5036467;28;19931;-80